createdAt,value
2023-03-06T00:02:29.651Z,80.97
2023-03-06T00:05:16.886Z,80.65
2023-03-06T00:08:04.203Z,80.65
2023-03-06T00:10:50.862Z,80.94
2023-03-06T00:13:38.390Z,80.68
2023-03-06T00:16:25.194Z,80.58
2023-03-06T00:19:11.939Z,80.76
2023-03-06T00:21:58.676Z,80.83
2023-03-06T00:24:45.531Z,80.97
2023-03-06T00:27:32.901Z,80.78
2023-03-06T00:30:22.932Z,80.76
2023-03-06T00:33:10.657Z,81.28
2023-03-06T00:35:57.143Z,81.17
2023-03-06T00:38:44.203Z,80.85
2023-03-06T00:41:31.304Z,80.76
2023-03-06T00:44:18.106Z,80.88
2023-03-06T00:47:04.967Z,80.70
2023-03-06T00:49:51.681Z,80.81
2023-03-06T00:52:39.877Z,80.64
2023-03-06T00:55:29.373Z,80.81
2023-03-06T00:58:16.624Z,80.84
2023-03-06T01:01:04.661Z,80.91
2023-03-06T01:03:51.148Z,80.72
2023-03-06T01:06:39.806Z,80.57
2023-03-06T01:09:27.072Z,80.77
2023-03-06T01:12:13.855Z,80.57
2023-03-06T01:15:00.563Z,80.30
2023-03-06T01:17:53.049Z,80.22
2023-03-06T01:20:39.520Z,80.42
2023-03-06T01:23:26.173Z,80.39
2023-03-06T01:26:14.917Z,80.27
2023-03-06T01:29:01.940Z,80.04
2023-03-06T01:31:48.829Z,80.26
2023-03-06T01:34:35.467Z,79.97
2023-03-06T01:37:22.780Z,80.03
2023-03-06T01:40:12.463Z,80.17
2023-03-06T01:43:25.618Z,80.04
2023-03-06T01:46:32.070Z,79.76
2023-03-06T01:49:22.090Z,79.66
2023-03-06T01:52:15.238Z,79.57
2023-03-06T01:55:12.263Z,79.64
2023-03-06T01:58:04.199Z,79.46
2023-03-06T02:00:51.382Z,79.29
2023-03-06T02:03:40.375Z,79.13
2023-03-06T02:06:27.506Z,79.39
2023-03-06T02:09:15.584Z,79.30
2023-03-06T02:12:07.427Z,79.22
2023-03-06T02:14:54.337Z,79.12
2023-03-06T02:17:45.414Z,79.48
2023-03-06T02:20:45.450Z,79.30
2023-03-06T02:24:06.208Z,79.77
2023-03-06T02:26:55.249Z,80.16
2023-03-06T02:29:43.558Z,80.07
2023-03-06T02:32:30.665Z,80.46
2023-03-06T02:35:22.115Z,80.52
2023-03-06T02:38:14.387Z,80.56
2023-03-06T02:41:06.444Z,80.18
2023-03-06T02:43:53.217Z,80.62
2023-03-06T02:46:40.031Z,80.37
2023-03-06T02:49:26.847Z,80.61
2023-03-06T02:52:13.674Z,80.50
2023-03-06T02:55:00.702Z,80.16
2023-03-06T02:57:47.725Z,80.32
2023-03-06T03:00:34.864Z,80.65
2023-03-06T03:03:23.071Z,80.48
2023-03-06T03:06:09.639Z,80.36
2023-03-06T03:08:56.727Z,80.44
2023-03-06T03:11:43.907Z,80.09
2023-03-06T03:14:30.820Z,80.40
2023-03-06T03:17:17.640Z,80.36
2023-03-06T03:20:10.992Z,80.15
2023-03-06T03:22:57.873Z,80.24
2023-03-06T03:25:44.705Z,80.14
2023-03-06T03:28:32.592Z,80.14
2023-03-06T03:31:19.729Z,80.46
2023-03-06T03:34:08.065Z,80.19
2023-03-06T03:36:56.939Z,80.40
2023-03-06T03:39:43.812Z,80.36
2023-03-06T03:42:31.608Z,80.52
2023-03-06T03:45:18.926Z,80.69
2023-03-06T03:48:05.840Z,80.67
2023-03-06T03:50:53.108Z,80.66
2023-03-06T03:53:40.146Z,80.81
2023-03-06T03:56:27.822Z,80.62
2023-03-06T03:59:19.187Z,80.61
2023-03-06T04:02:14.812Z,80.78
2023-03-06T04:05:09.722Z,80.55
2023-03-06T04:07:56.739Z,80.66
2023-03-06T04:10:43.769Z,80.87
2023-03-06T04:13:31.474Z,80.86
2023-03-06T04:16:18.516Z,80.68
2023-03-06T04:19:05.607Z,80.56
2023-03-06T04:21:53.204Z,80.75
2023-03-06T04:24:40.826Z,80.50
2023-03-06T04:27:28.465Z,80.38
2023-03-06T04:30:15.653Z,80.43
2023-03-06T04:33:03.076Z,80.50
2023-03-06T04:35:50.259Z,80.66
2023-03-06T04:38:41.163Z,80.80
2023-03-06T04:41:28.169Z,80.39
2023-03-06T04:44:14.935Z,80.87
2023-03-06T04:47:01.927Z,81.00
2023-03-06T04:49:48.326Z,81.05
2023-03-06T04:52:35.113Z,81.01
2023-03-06T04:55:21.954Z,81.17
2023-03-06T04:58:11.850Z,81.09
2023-03-06T05:00:58.529Z,80.88
2023-03-06T05:03:45.150Z,81.00
2023-03-06T05:06:31.943Z,81.14
2023-03-06T05:09:18.533Z,80.83
2023-03-06T05:12:05.681Z,81.05
2023-03-06T05:14:52.755Z,81.37
2023-03-06T05:17:39.911Z,81.18
2023-03-06T05:20:28.192Z,81.26
2023-03-06T05:23:15.178Z,81.42
2023-03-06T05:26:13.823Z,81.32
2023-03-06T05:29:00.294Z,81.31
2023-03-06T05:31:46.909Z,81.21
2023-03-06T05:34:33.996Z,81.23
2023-03-06T05:37:22.502Z,80.91
2023-03-06T05:40:11.048Z,80.83
2023-03-06T05:42:57.962Z,80.78
2023-03-06T05:45:44.755Z,81.04
2023-03-06T05:48:32.799Z,80.96
2023-03-06T05:51:19.721Z,80.77
2023-03-06T05:54:06.391Z,80.57
2023-03-06T05:56:56.816Z,80.71
2023-03-06T05:59:43.352Z,80.60
2023-03-06T06:02:30.400Z,80.79
2023-03-06T06:05:17.307Z,80.42
2023-03-06T06:08:04.168Z,80.69
2023-03-06T06:10:53.316Z,80.42
2023-03-06T06:13:41.638Z,80.39
2023-03-06T06:16:28.311Z,80.11
2023-03-06T06:19:18.281Z,79.86
2023-03-06T06:22:05.189Z,79.83
2023-03-06T06:24:52.329Z,79.52
2023-03-06T06:27:39.054Z,79.13
2023-03-06T06:30:25.865Z,78.81
2023-03-06T06:33:12.513Z,78.70
2023-03-06T06:35:59.218Z,78.57
2023-03-06T06:38:46.307Z,78.23
2023-03-06T06:41:51.810Z,78.01
2023-03-06T06:44:39.997Z,77.92
2023-03-06T06:47:27.109Z,77.67
2023-03-06T06:50:14.259Z,77.29
2023-03-06T06:53:01.119Z,76.71
2023-03-06T06:55:47.655Z,76.83
2023-03-06T06:58:34.656Z,76.48
2023-03-06T07:01:21.844Z,75.91
2023-03-06T07:04:15.229Z,75.87
2023-03-06T07:07:02.963Z,75.03
2023-03-06T07:09:50.007Z,74.85
2023-03-06T07:12:36.853Z,72.75
2023-03-06T07:15:26.285Z,65.21
2023-03-06T07:18:13.089Z,57.61
2023-03-06T07:21:01.407Z,53.43
2023-03-06T07:23:48.295Z,48.94
2023-03-06T07:26:35.114Z,45.68
2023-03-06T07:29:21.824Z,42.06
2023-03-06T07:32:08.751Z,39.21
2023-03-06T07:35:12.917Z,37.47
2023-03-06T07:38:02.039Z,35.11
2023-03-06T07:40:52.727Z,33.08
2023-03-06T07:43:41.409Z,32.20
2023-03-06T07:46:28.652Z,31.73
2023-03-06T07:49:16.527Z,30.84
2023-03-06T07:52:03.526Z,29.41
2023-03-06T07:54:50.357Z,28.90
2023-03-06T07:57:38.173Z,29.23
2023-03-06T08:00:25.083Z,28.17
2023-03-06T08:03:12.924Z,26.95
2023-03-06T08:06:16.084Z,26.06
2023-03-06T08:09:03.566Z,25.82
2023-03-06T08:11:50.692Z,26.07
2023-03-06T08:14:37.584Z,25.37
2023-03-06T08:17:24.743Z,24.87
2023-03-06T08:20:13.875Z,24.38
2023-03-06T08:23:00.912Z,23.97
2023-03-06T08:25:57.032Z,23.36
2023-03-06T08:28:44.870Z,23.13
2023-03-06T08:31:34.716Z,22.91
2023-03-06T08:34:24.169Z,22.73
2023-03-06T08:37:11.031Z,22.87
2023-03-06T08:39:58.234Z,22.58
2023-03-06T08:42:47.857Z,22.71
2023-03-06T08:45:35.040Z,22.55
2023-03-06T08:48:22.098Z,22.07
2023-03-06T08:51:10.027Z,21.82
2023-03-06T08:53:57.781Z,21.96
2023-03-06T08:56:44.906Z,21.62
2023-03-06T08:59:31.675Z,21.78
2023-03-06T09:02:18.382Z,21.06
2023-03-06T09:05:07.860Z,21.19
2023-03-06T09:07:54.961Z,21.26
2023-03-06T09:10:47.492Z,20.48
2023-03-06T09:13:34.140Z,20.44
2023-03-06T09:16:21.316Z,22.17
2023-03-06T09:19:08.092Z,24.16
2023-03-06T09:21:54.680Z,23.76
2023-03-06T09:24:41.404Z,23.13
2023-03-06T09:27:28.682Z,22.48
2023-03-06T09:30:17.158Z,21.39
2023-03-06T09:33:03.976Z,20.27
2023-03-06T09:35:56.966Z,20.26
2023-03-06T09:38:47.205Z,19.47
2023-03-06T09:41:40.055Z,19.22
2023-03-06T09:44:31.684Z,18.72
2023-03-06T09:47:44.542Z,18.59
2023-03-06T09:50:54.629Z,18.48
2023-03-06T09:54:11.555Z,18.16
2023-03-06T09:56:58.503Z,18.14
2023-03-06T09:59:50.566Z,17.63
2023-03-06T10:02:37.341Z,19.08
2023-03-06T10:05:38.958Z,20.52
2023-03-06T10:09:12.880Z,21.86
2023-03-06T10:12:06.078Z,21.61
2023-03-06T10:15:10.389Z,20.99
2023-03-06T10:17:57.152Z,21.05
2023-03-06T10:21:16.909Z,20.76
2023-03-06T10:24:42.756Z,19.94
2023-03-06T10:27:53.389Z,21.61
2023-03-06T10:30:45.549Z,23.50
2023-03-06T10:33:52.366Z,25.09
2023-03-06T10:36:39.260Z,25.91
2023-03-06T10:39:27.847Z,25.10
2023-03-06T10:42:14.674Z,24.42
2023-03-06T10:45:14.333Z,24.86
2023-03-06T10:48:11.460Z,23.58
2023-03-06T10:51:22.918Z,22.25
2023-03-06T10:54:12.594Z,22.33
2023-03-06T10:57:16.603Z,22.56
2023-03-06T11:00:24.446Z,24.10
2023-03-06T11:03:29.797Z,25.94
2023-03-06T11:06:43.425Z,27.74
2023-03-06T11:09:32.720Z,29.84
2023-03-06T11:12:37.377Z,30.87
2023-03-06T11:15:26.703Z,31.88
2023-03-06T11:18:13.179Z,32.97
2023-03-06T11:21:01.739Z,34.03
2023-03-06T11:23:49.813Z,35.11
2023-03-06T11:26:46.666Z,35.78
2023-03-06T11:29:48.035Z,36.53
2023-03-06T11:32:47.399Z,37.39
2023-03-06T11:36:28.946Z,38.24
2023-03-06T11:39:41.308Z,38.87
2023-03-06T11:42:36.753Z,39.30
2023-03-06T11:45:26.569Z,39.00
2023-03-06T11:48:13.448Z,36.14
2023-03-06T11:51:38.960Z,33.24
2023-03-06T11:54:26.294Z,31.27
2023-03-06T11:57:23.204Z,30.59
2023-03-06T12:00:33.067Z,29.72
2023-03-06T12:03:36.823Z,28.80
2023-03-06T12:07:10.609Z,28.16
2023-03-06T12:10:10.429Z,28.74
2023-03-06T12:13:29.325Z,29.40
2023-03-06T12:16:54.519Z,28.77
2023-03-06T12:20:13.347Z,28.81
2023-03-06T12:23:50.775Z,28.37
2023-03-06T12:26:49.837Z,27.91
2023-03-06T12:30:05.003Z,29.00
2023-03-06T12:33:11.224Z,30.56
2023-03-06T12:36:03.089Z,31.88
2023-03-06T12:39:52.396Z,35.56
2023-03-06T12:42:39.351Z,38.27
2023-03-06T12:45:33.093Z,40.08
2023-03-06T12:48:28.914Z,42.10
2023-03-06T12:51:19.912Z,43.67
2023-03-06T12:54:10.369Z,45.01
2023-03-06T12:56:59.838Z,46.54
2023-03-06T12:59:48.743Z,48.11
2023-03-06T13:03:05.998Z,49.89
2023-03-06T13:06:39.157Z,50.34
2023-03-06T13:10:12.494Z,50.32
2023-03-06T13:13:08.051Z,50.12
2023-03-06T13:16:29.703Z,49.26
2023-03-06T13:19:26.576Z,49.39
2023-03-06T13:22:26.802Z,49.11
2023-03-06T13:25:17.006Z,47.80
2023-03-06T13:28:04.335Z,46.93
2023-03-06T13:30:53.211Z,46.63
2023-03-06T13:33:40.348Z,45.85
2023-03-06T13:36:32.629Z,45.38
2023-03-06T13:39:19.756Z,43.28
2023-03-06T13:42:06.827Z,41.00
2023-03-06T13:44:56.861Z,41.56
2023-03-06T13:48:21.188Z,42.12
2023-03-06T13:51:33.350Z,42.75
2023-03-06T13:55:03.568Z,43.71
2023-03-06T13:58:35.786Z,44.27
2023-03-06T14:02:04.466Z,45.11
2023-03-06T14:04:59.866Z,45.80
2023-03-06T14:08:18.178Z,46.54
2023-03-06T14:11:22.474Z,46.53
2023-03-06T14:14:11.518Z,46.72
2023-03-06T14:16:59.941Z,47.53
2023-03-06T14:19:47.074Z,48.03
2023-03-06T14:22:33.976Z,48.14
2023-03-06T14:25:30.780Z,48.47
2023-03-06T14:28:30.850Z,48.78
2023-03-06T14:31:24.418Z,48.79
2023-03-06T14:34:40.619Z,48.48
2023-03-06T14:37:28.569Z,47.93
2023-03-06T14:40:24.049Z,48.12
2023-03-06T14:43:30.670Z,47.84
2023-03-06T14:46:22.073Z,48.08
2023-03-06T14:49:08.748Z,48.61
2023-03-06T14:52:01.111Z,48.46
2023-03-06T14:54:49.112Z,48.28
2023-03-06T14:57:36.235Z,48.19
2023-03-06T15:00:30.015Z,48.19
2023-03-06T15:03:49.089Z,48.70
2023-03-06T15:06:43.110Z,48.93
2023-03-06T15:09:33.530Z,49.45
2023-03-06T15:12:20.757Z,49.60
2023-03-06T15:15:10.516Z,49.89
2023-03-06T15:17:57.140Z,50.82
2023-03-06T15:20:53.916Z,51.69
2023-03-06T15:23:43.746Z,51.77
2023-03-06T15:26:36.131Z,53.01
2023-03-06T15:29:23.687Z,54.07
2023-03-06T15:32:24.221Z,54.66
2023-03-06T15:35:32.552Z,55.54
2023-03-06T15:38:31.698Z,55.99
2023-03-06T15:41:26.049Z,56.69
2023-03-06T15:44:14.507Z,58.04
2023-03-06T15:47:08.805Z,58.18
2023-03-06T15:49:56.401Z,58.52
2023-03-06T15:52:45.393Z,59.10
2023-03-06T15:55:32.778Z,59.42
2023-03-06T15:58:24.165Z,59.68
2023-03-06T16:01:17.063Z,59.93
2023-03-06T16:04:04.081Z,60.10
2023-03-06T16:06:50.570Z,60.57
2023-03-06T16:09:37.881Z,60.76
2023-03-06T16:12:24.905Z,61.10
2023-03-06T16:15:29.837Z,61.18
2023-03-06T16:18:17.469Z,61.94
2023-03-06T16:21:05.965Z,62.90
2023-03-06T16:23:53.200Z,63.71
2023-03-06T16:26:41.344Z,64.69
2023-03-06T16:29:29.479Z,65.81
2023-03-06T16:32:16.289Z,66.25
2023-03-06T16:35:03.502Z,66.93
2023-03-06T16:37:50.633Z,67.55
2023-03-06T16:40:40.560Z,68.09
2023-03-06T16:43:27.619Z,68.61
2023-03-06T16:46:23.935Z,68.73
2023-03-06T16:49:20.869Z,68.82
2023-03-06T16:52:10.559Z,68.97
2023-03-06T16:54:57.324Z,69.08
2023-03-06T16:57:44.217Z,69.57
2023-03-06T17:00:34.123Z,69.77
2023-03-06T17:03:21.054Z,69.48
2023-03-06T17:06:20.721Z,69.68
2023-03-06T17:09:07.359Z,69.95
2023-03-06T17:11:55.789Z,69.96
2023-03-06T17:14:42.756Z,69.72
2023-03-06T17:17:31.419Z,69.47
2023-03-06T17:20:19.821Z,69.35
2023-03-06T17:23:07.005Z,69.60
2023-03-06T17:26:29.933Z,69.50
2023-03-06T17:29:17.348Z,70.18
2023-03-06T17:32:07.118Z,70.26
2023-03-06T17:34:55.571Z,70.20
2023-03-06T17:37:42.520Z,70.81
2023-03-06T17:40:29.626Z,70.97
2023-03-06T17:43:16.506Z,71.55
2023-03-06T17:46:05.733Z,72.24
2023-03-06T17:48:53.106Z,73.23
2023-03-06T17:51:40.583Z,74.06
2023-03-06T17:54:30.266Z,74.57
2023-03-06T17:57:17.456Z,75.46
2023-03-06T18:00:05.965Z,76.04
2023-03-06T18:02:59.139Z,76.85
2023-03-06T18:05:58.205Z,77.24
2023-03-06T18:08:46.087Z,77.72
2023-03-06T18:11:32.932Z,78.93
2023-03-06T18:14:20.204Z,79.57
2023-03-06T18:17:08.397Z,80.36
2023-03-06T18:19:56.340Z,81.11
2023-03-06T18:22:43.191Z,82.11
2023-03-06T18:25:31.864Z,81.12
2023-03-06T18:28:19.024Z,81.26
2023-03-06T18:31:17.886Z,81.05
2023-03-06T18:34:10.186Z,81.09
2023-03-06T18:36:58.353Z,80.26
2023-03-06T18:39:45.363Z,79.86
2023-03-06T18:42:32.441Z,79.67
2023-03-06T18:45:20.882Z,79.63
2023-03-06T18:48:08.461Z,79.45
2023-03-06T18:50:54.773Z,79.66
2023-03-06T18:53:43.062Z,79.82
2023-03-06T18:56:29.649Z,80.01
2023-03-06T18:59:18.771Z,80.34
2023-03-06T19:02:06.555Z,80.49
2023-03-06T19:04:54.032Z,80.58
2023-03-06T19:07:40.891Z,80.67
2023-03-06T19:10:29.528Z,80.82
2023-03-06T19:13:16.520Z,80.99
2023-03-06T19:16:03.987Z,80.86
2023-03-06T19:18:50.819Z,81.31
2023-03-06T19:21:37.559Z,81.38
2023-03-06T19:24:24.445Z,81.64
2023-03-06T19:27:11.851Z,81.86
2023-03-06T19:29:58.448Z,82.32
2023-03-06T19:32:46.275Z,82.53
2023-03-06T19:35:35.631Z,82.87
2023-03-06T19:38:23.594Z,83.07
2023-03-06T19:41:13.121Z,83.56
2023-03-06T19:44:05.220Z,83.66
2023-03-06T19:46:52.049Z,83.27
2023-03-06T19:49:38.829Z,83.65
2023-03-06T19:52:25.654Z,83.76
2023-03-06T19:55:12.968Z,84.06
2023-03-06T19:58:00.209Z,84.18
2023-03-06T20:00:47.002Z,83.96
2023-03-06T20:03:33.621Z,84.01
2023-03-06T20:06:21.679Z,84.68
2023-03-06T20:09:09.021Z,84.74
2023-03-06T20:11:57.021Z,85.36
2023-03-06T20:14:45.656Z,86.59
2023-03-06T20:17:34.997Z,87.32
2023-03-06T20:20:21.735Z,87.37
2023-03-06T20:23:08.750Z,88.38
2023-03-06T20:25:55.700Z,88.03
2023-03-06T20:28:42.795Z,87.77
2023-03-06T20:31:30.371Z,88.60
2023-03-06T20:34:16.937Z,88.20
2023-03-06T20:37:04.822Z,88.14
2023-03-06T20:39:52.159Z,87.61
2023-03-06T20:42:39.367Z,87.59
2023-03-06T20:45:26.108Z,88.04
2023-03-06T20:48:12.998Z,88.23
2023-03-06T20:51:17.622Z,87.72
2023-03-06T20:54:07.354Z,87.90
2023-03-06T20:56:54.190Z,88.48
2023-03-06T20:59:41.563Z,88.58
2023-03-06T21:02:28.326Z,88.68
2023-03-06T21:05:17.110Z,88.22
2023-03-06T21:08:03.914Z,88.05
2023-03-06T21:10:50.988Z,89.04
2023-03-06T21:13:38.250Z,89.11
2023-03-06T21:16:27.340Z,89.12
2023-03-06T21:19:16.256Z,89.87
2023-03-06T21:22:03.515Z,90.33
2023-03-06T21:24:50.376Z,90.58
2023-03-06T21:27:39.565Z,91.27
2023-03-06T21:30:28.344Z,91.33
2023-03-06T21:33:15.618Z,91.84
2023-03-06T21:36:04.006Z,92.76
2023-03-06T21:38:52.231Z,92.78
2023-03-06T21:41:39.995Z,92.38
2023-03-06T21:44:26.868Z,92.59
2023-03-06T21:47:13.583Z,91.76
2023-03-06T21:50:00.421Z,91.61
2023-03-06T21:52:47.229Z,91.56
2023-03-06T21:55:37.338Z,91.54
2023-03-06T21:58:24.295Z,90.62
2023-03-06T22:01:15.239Z,90.86
2023-03-06T22:04:02.651Z,89.89
2023-03-06T22:06:49.582Z,89.51
2023-03-06T22:09:36.887Z,89.66
2023-03-06T22:12:24.095Z,89.49
2023-03-06T22:15:11.341Z,89.41
2023-03-06T22:17:58.286Z,89.50
2023-03-06T22:20:45.084Z,89.13
2023-03-06T22:23:32.021Z,88.87
2023-03-06T22:26:19.588Z,87.96
2023-03-06T22:29:06.355Z,87.58
2023-03-06T22:31:53.460Z,87.25
2023-03-06T22:34:40.732Z,86.94
2023-03-06T22:37:27.499Z,86.84
2023-03-06T22:40:14.171Z,86.33
2023-03-06T22:43:01.139Z,85.77
2023-03-06T22:45:48.227Z,85.15
2023-03-06T22:48:36.882Z,85.08
2023-03-06T22:51:24.911Z,84.50
2023-03-06T22:54:11.857Z,84.10
2023-03-06T22:56:58.510Z,83.62
2023-03-06T22:59:45.390Z,83.41
2023-03-06T23:02:34.600Z,82.86
2023-03-06T23:05:21.486Z,82.85
2023-03-06T23:08:09.125Z,82.48
2023-03-06T23:10:55.773Z,82.15
2023-03-06T23:14:02.132Z,82.20
2023-03-06T23:17:07.705Z,81.68
2023-03-06T23:20:14.110Z,81.50
2023-03-06T23:23:19.746Z,81.54
2023-03-06T23:26:08.205Z,81.35
2023-03-06T23:28:56.553Z,81.37
2023-03-06T23:31:43.352Z,81.28
2023-03-06T23:34:30.319Z,81.39
2023-03-06T23:37:16.932Z,81.56
2023-03-06T23:40:07.346Z,81.88
2023-03-06T23:42:54.278Z,81.79
2023-03-06T23:45:41.189Z,82.10
2023-03-06T23:48:28.530Z,82.16
2023-03-06T23:51:22.042Z,82.35
2023-03-06T23:54:09.744Z,82.48
2023-03-06T23:56:56.477Z,82.74
2023-03-06T23:59:43.929Z,82.92
